Time;durP1;ratioP1;P1;durP2;ratioP2;P2;SDS_P1;SDS_P2;PMS_P1;PMS_P2;Temp;Humidity;BMP_temperature;BMP_pressure;BME280_temperature;BME280_humidity;BME280_pressure;Samples;Min_cycle;Max_cycle;Signal;HPM_P1;HPM_P2
2024/04/01 00:00:07;;;;;;;0.50;0.50;;;;;;;11.24;85.82;94698.69;29395;207;63008;-54
2024/04/01 00:00:38;;;;;;;0.40;0.40;;;;;;;11.26;85.96;94699.13;29395;198;63004;-52
2024/04/01 00:01:11;;;;;;;0.40;0.40;;;;;;;11.26;85.68;94693.72;29395;233;63009;-52
2024/04/01 00:01:44;;;;;;;0.50;0.50;;;;;;;11.27;85.87;94699.94;29395;232;63005;-52
2024/04/01 00:02:15;;;;;;;0.47;0.47;;;;;;;11.26;86.17;94693.72;29394;206;64014;-52
2024/04/01 00:02:46;;;;;;;0.47;0.47;;;;;;;11.25;86.18;94692.12;29395;264;63005;-52
2024/04/01 00:03:18;;;;;;;0.45;0.45;;;;;;;11.23;86.32;94690.91;29395;265;63009;-52
2024/04/01 00:03:49;;;;;;;0.40;0.40;;;;;;;11.18;87.41;94681.09;29395;238;63005;-53
2024/04/01 00:04:20;;;;;;;0.40;0.40;;;;;;;11.17;86.72;94684.94;29395;202;63009;-52
2024/04/01 00:04:54;;;;;;;0.40;0.40;;;;;;;11.15;87.76;94684.50;29395;231;63005;-52
2024/04/01 00:05:25;;;;;;;0.50;0.50;;;;;;;11.11;87.92;94683.63;29395;222;63009;-54
2024/04/01 00:05:58;;;;;;;0.50;0.50;;;;;;;11.22;87.72;94681.19;29395;226;63004;-53
2024/04/01 00:06:29;;;;;;;0.50;0.50;;;;;;;11.24;87.42;94682.41;29395;199;63009;-53
2024/04/01 00:07:00;;;;;;;0.50;0.50;;;;;;;11.26;87.38;94682.06;29395;226;63000;-53
2024/04/01 00:07:32;;;;;;;0.40;0.40;;;;;;;11.20;87.79;94678.81;29394;209;64013;-53
2024/04/01 00:08:04;;;;;;;0.50;0.50;;;;;;;11.17;88.28;94684.16;29395;196;63004;-53
2024/04/01 00:08:36;;;;;;;0.43;0.43;;;;;;;11.08;89.23;94687.06;29395;235;63009;-54
2024/04/01 00:09:08;;;;;;;0.50;0.50;;;;;;;11.04;89.61;94680.75;29395;234;63005;-53
2024/04/01 00:09:39;;;;;;;0.50;0.50;;;;;;;10.99;89.86;94675.56;29395;239;63016;-53
2024/04/01 00:10:10;;;;;;;0.50;0.50;;;;;;;10.99;89.11;94678.28;29395;221;63010;-54
2024/04/01 00:10:42;;;;;;;0.50;0.50;;;;;;;10.98;89.02;94676.72;29395;211;63009;-53
2024/04/01 00:11:13;;;;;;;0.50;0.50;;;;;;;10.97;88.76;94675.13;29395;342;63005;-54
2024/04/01 00:11:45;;;;;;;0.50;0.50;;;;;;;10.94;90.70;94671.19;29395;212;63011;-53
2024/04/01 00:12:19;;;;;;;0.50;0.50;;;;;;;10.91;90.37;94671.88;29395;270;63005;-54
2024/04/01 00:12:50;;;;;;;0.50;0.50;;;;;;;10.91;89.54;94677.31;29394;230;64013;-54
2024/04/01 00:13:22;;;;;;;0.50;0.50;;;;;;;10.95;89.64;94670.06;29395;233;63004;-54
2024/04/01 00:13:53;;;;;;;0.50;0.50;;;;;;;11.04;89.49;94678.03;29395;234;63009;-54
2024/04/01 00:14:24;;;;;;;0.50;0.50;;;;;;;11.03;89.57;94679.97;29395;202;63004;-54
2024/04/01 00:14:56;;;;;;;0.50;0.50;;;;;;;11.02;89.68;94683.03;29395;221;63009;-54
2024/04/01 00:15:29;;;;;;;0.50;0.50;;;;;;;10.99;90.73;94681.00;29395;220;63004;-53
2024/04/01 00:16:00;;;;;;;0.50;0.50;;;;;;;10.94;90.39;94684.75;29395;221;63009;-53
2024/04/01 00:16:31;;;;;;;0.50;0.50;;;;;;;10.95;89.84;94685.53;29395;232;63005;-54
2024/04/01 00:17:03;;;;;;;0.50;0.50;;;;;;;10.98;89.84;94682.94;29395;200;63018;-53
2024/04/01 00:17:34;;;;;;;0.50;0.50;;;;;;;10.99;89.98;94678.28;29395;267;63005;-53
2024/04/01 00:18:06;;;;;;;0.50;0.50;;;;;;;10.97;90.19;94680.56;29394;197;64013;-53
2024/04/01 00:18:37;;;;;;;0.47;0.47;;;;;;;10.93;90.59;94680.47;29395;208;63005;-53
2024/04/01 00:19:08;;;;;;;0.50;0.50;;;;;;;10.89;91.17;94674.16;29395;225;63009;-53
2024/04/01 00:19:40;;;;;;;0.50;0.50;;;;;;;10.84;91.62;94673.63;29395;251;63005;-53
2024/04/01 00:20:11;;;;;;;0.50;0.50;;;;;;;10.80;90.40;94678.94;29395;203;63009;-54
2024/04/01 00:20:43;;;;;;;0.40;0.40;;;;;;;10.80;91.51;94680.87;29395;233;63004;-53
2024/04/01 00:21:14;;;;;;;0.43;0.43;;;;;;;10.78;92.42;94677.72;29395;210;63009;-53
2024/04/01 00:21:45;;;;;;;0.50;0.50;;;;;;;10.75;91.43;94673.78;29395;215;63007;-53
2024/04/01 00:22:17;;;;;;;0.50;0.50;;;;;;;10.75;91.20;94682.69;29395;266;63009;-53
2024/04/01 00:22:52;;;;;;;0.50;0.50;;;;;;;10.80;91.31;94672.72;29395;205;63004;-54
2024/04/01 00:23:26;;;;;;;0.47;0.47;;;;;;;10.89;91.63;94678.78;29394;240;64013;-55
2024/04/01 00:23:57;;;;;;;0.50;0.50;;;;;;;10.96;91.17;94681.69;29395;215;63010;-54
2024/04/01 00:24:28;;;;;;;0.50;0.50;;;;;;;11.02;91.01;94677.59;29395;224;63009;-55
2024/04/01 00:25:00;;;;;;;0.50;0.50;;;;;;;11.02;90.85;94678.38;29395;442;63011;-55
2024/04/01 00:25:33;;;;;;;0.40;0.40;;;;;;;11.02;90.23;94677.59;29395;266;63009;-53
2024/04/01 00:26:04;;;;;;;0.75;0.73;;;;;;;10.99;90.37;94678.28;29395;209;63005;-53
2024/04/01 00:26:35;;;;;;;0.50;0.50;;;;;;;10.97;90.62;94675.13;29395;207;63009;-55
2024/04/01 00:27:07;;;;;;;0.43;0.43;;;;;;;10.93;91.01;94674.25;29395;234;63005;-53
2024/04/01 00:27:38;;;;;;;0.50;0.50;;;;;;;10.89;91.23;94673.37;29395;273;63019;-53
2024/04/01 00:28:09;;;;;;;0.50;0.50;;;;;;;10.86;92.02;94674.06;29395;231;63004;-53
2024/04/01 00:28:41;;;;;;;0.50;0.50;;;;;;;10.84;91.61;94676.34;29394;264;64013;-53
2024/04/01 00:29:12;;;;;;;0.50;0.50;;;;;;;10.84;91.80;94677.12;29395;231;63004;-53
2024/04/01 00:29:43;;;;;;;0.50;0.50;;;;;;;10.81;92.09;94669.69;29395;211;63009;-54
2024/04/01 00:30:14;;;;;;;0.50;0.50;;;;;;;10.79;92.32;94673.87;29395;196;63004;-53
2024/04/01 00:30:46;;;;;;;0.50;0.50;;;;;;;10.75;91.79;94663.72;29395;273;63008;-53
2024/04/01 00:31:17;;;;;;;0.50;0.50;;;;;;;10.73;92.55;94670.66;29395;274;63005;-53
2024/04/01 00:31:48;;;;;;;0.50;0.50;;;;;;;10.71;92.40;94673.72;29395;254;63022;-54
2024/04/01 00:32:19;;;;;;;0.50;0.50;;;;;;;10.69;93.25;94670.56;29395;326;63005;-53
2024/04/01 00:32:52;;;;;;;0.50;0.50;;;;;;;10.65;94.63;94668.88;29395;254;63009;-54
2024/04/01 00:33:23;;;;;;;0.50;0.50;;;;;;;10.59;94.95;94662.12;29394;313;64009;-53
2024/04/01 00:33:57;;;;;;;0.50;0.50;;;;;;;10.56;94.18;94660.88;29395;222;63005;-54
2024/04/01 00:34:28;;;;;;;0.50;0.50;;;;;;;10.54;95.08;94655.03;29395;318;63005;-53
2024/04/01 00:35:00;;;;;;;0.50;0.50;;;;;;;10.53;95.85;94661.56;29395;221;63009;-54
2024/04/01 00:35:31;;;;;;;0.50;0.50;;;;;;;10.51;94.91;94658.44;29395;286;63004;-53
2024/04/01 00:36:02;;;;;;;0.40;0.40;;;;;;;10.51;94.49;94663.84;29395;206;63009;-53
2024/04/01 00:36:34;;;;;;;0.50;0.50;;;;;;;10.52;94.25;94660.00;29395;242;63007;-54
2024/04/01 00:37:05;;;;;;;0.50;0.50;;;;;;;10.54;95.39;94648.81;29395;315;63009;-54
2024/04/01 00:37:36;;;;;;;0.45;0.45;;;;;;;10.51;96.64;94652.22;29395;249;63004;-53
2024/04/01 00:38:08;;;;;;;0.50;0.50;;;;;;;10.49;96.62;94647.12;29395;337;63008;-53
2024/04/01 00:38:39;;;;;;;0.50;0.50;;;;;;;10.48;95.90;94653.69;29394;287;64009;-54
2024/04/01 00:39:12;;;;;;;0.50;0.50;;;;;;;10.47;95.75;94654.81;29395;443;63009;-53
2024/04/01 00:39:44;;;;;;;0.50;0.50;;;;;;;10.47;95.13;94654.81;29395;226;63005;-53
2024/04/01 00:40:15;;;;;;;0.50;0.50;;;;;;;10.50;95.12;94650.63;29395;267;63009;-55
2024/04/01 00:40:47;;;;;;;0.50;0.50;;;;;;;10.56;95.38;94650.03;29395;203;63005;-54
2024/04/01 00:41:18;;;;;;;0.40;0.40;;;;;;;10.57;95.33;94640.78;29395;260;63009;-53
2024/04/01 00:41:50;;;;;;;0.50;0.50;;;;;;;10.57;94.94;94642.69;29395;215;63005;-54
2024/04/01 00:42:22;;;;;;;0.50;0.50;;;;;;;10.54;94.50;94636.03;29395;219;63009;-53
2024/04/01 00:43:11;;;;;;;0.50;0.50;;;;;;;10.51;95.63;94631.31;29395;459;63004;-54
2024/04/01 00:43:43;;;;;;;0.50;0.50;;;;;;;10.48;96.46;94631.22;29394;359;64006;-53
2024/04/01 00:44:14;;;;;;;0.50;0.50;;;;;;;10.45;95.21;94627.28;29395;268;63004;-53
2024/04/01 00:44:45;;;;;;;0.50;0.50;;;;;;;10.43;96.44;94629.53;29395;273;63017;-53
2024/04/01 00:45:16;;;;;;;0.50;0.50;;;;;;;10.41;97.03;94629.09;29395;320;63004;-53
2024/04/01 00:45:48;;;;;;;0.50;0.50;;;;;;;10.42;96.19;94633.38;29395;196;63008;-53
2024/04/01 00:46:21;;;;;;;0.50;0.50;;;;;;;10.43;95.96;94634.97;29395;410;63005;-53
2024/04/01 00:46:53;;;;;;;0.50;0.50;;;;;;;10.48;96.11;94637.44;29395;283;63009;-53
2024/04/01 00:47:26;;;;;;;0.50;0.50;;;;;;;10.48;95.83;94634.72;29395;197;63005;-53
2024/04/01 00:47:59;;;;;;;0.50;0.50;;;;;;;10.50;95.92;94637.06;29395;246;63009;-53
2024/04/01 00:48:31;;;;;;;0.50;0.50;;;;;;;10.50;95.96;94639.78;29395;230;63005;-53
2024/04/01 00:49:02;;;;;;;0.50;0.50;;;;;;;10.50;95.94;94642.50;29394;430;64013;-53
2024/04/01 00:49:34;;;;;;;0.50;0.50;;;;;;;10.49;95.79;94630.06;29395;261;63004;-53
2024/04/01 00:50:06;;;;;;;0.50;0.50;;;;;;;10.48;95.80;94634.72;29395;256;63009;-54
2024/04/01 00:50:38;;;;;;;0.50;0.50;;;;;;;10.47;96.00;94626.94;29395;331;63004;-72
2024/04/01 00:51:10;;;;;;;0.50;0.50;;;;;;;10.45;96.98;94627.28;29395;220;63009;-54
2024/04/01 00:51:42;;;;;;;0.50;0.50;;;;;;;10.39;97.90;94624.03;29395;197;63004;-53
2024/04/01 00:52:15;;;;;;;0.50;0.50;;;;;;;10.37;97.85;94620.09;29395;214;63027;-53
2024/04/01 00:52:47;;;;;;;0.50;0.50;;;;;;;10.34;97.76;94609.94;29395;266;63004;-71
2024/04/01 00:53:20;;;;;;;0.50;0.50;;;;;;;10.33;97.68;94611.09;29395;333;63009;-54
2024/04/01 00:53:52;;;;;;;0.50;0.50;;;;;;;10.31;97.09;94605.22;29395;347;63005;-53
2024/04/01 00:54:26;;;;;;;0.50;0.50;;;;;;;10.30;97.61;94606.34;29394;415;64014;-54
2024/04/01 00:54:59;;;;;;;0.50;0.50;;;;;;;10.29;98.43;94607.47;29395;511;63009;-53
2024/04/01 00:55:35;;;;;;;0.50;0.50;;;;;;;10.28;98.43;94595.06;29395;497;63013;-53
2024/04/01 00:56:07;;;;;;;0.50;0.50;;;;;;;10.28;97.77;94595.84;29395;452;63005;-53
2024/04/01 00:56:41;;;;;;;0.50;0.50;;;;;;;10.29;97.98;94585.81;29395;215;63009;-53
2024/04/01 00:57:17;;;;;;;0.50;0.50;;;;;;;10.26;99.02;94584.56;29395;369;63004;-53
2024/04/01 00:57:49;;;;;;;0.50;0.50;;;;;;;10.24;99.48;94581.41;29395;344;63009;-53
2024/04/01 00:58:21;;;;;;;0.50;0.50;;;;;;;10.23;98.93;94579.06;29395;238;63004;-54
2024/04/01 00:58:54;;;;;;;0.50;0.50;;;;;;;10.21;99.65;94584.03;29395;334;63009;-53
2024/04/01 00:59:28;;;;;;;0.50;0.50;;;;;;;10.19;99.16;94576.25;29394;457;64009;-53
2024/04/01 01:00:00;;;;;;;0.50;0.50;;;;;;;10.19;98.54;94576.25;29395;475;63008;-53
2024/04/01 01:00:32;;;;;;;0.50;0.50;;;;;;;10.21;98.57;94573.97;29395;256;63005;-53
2024/04/01 01:01:04;;;;;;;0.50;0.50;;;;;;;10.21;98.53;94565.84;29394;239;64014;-54
2024/04/01 01:01:36;;;;;;;0.50;0.50;;;;;;;10.21;100.00;94562.34;29394;244;64009;-54
2024/04/01 01:02:08;;;;;;;0.50;0.50;;;;;;;10.20;100.00;94563.47;29395;253;63009;-54
2024/04/01 01:02:40;;;;;;;0.50;0.50;;;;;;;10.21;99.16;94560.44;29395;278;63005;-54
2024/04/01 01:03:12;;;;;;;0.50;0.50;;;;;;;10.23;99.17;94563.56;29395;218;63009;-55
2024/04/01 01:03:44;;;;;;;0.50;0.50;;;;;;;10.30;98.51;94565.69;29395;225;63009;-54
2024/04/01 01:04:17;;;;;;;0.50;0.50;;;;;;;10.31;98.62;94567.28;29395;199;63009;-53
2024/04/01 01:04:49;;;;;;;0.50;0.50;;;;;;;10.32;98.25;94569.63;29395;202;63014;-54
2024/04/01 01:05:21;;;;;;;0.50;0.50;;;;;;;10.31;97.91;94573.47;29394;275;64004;-53
2024/04/01 01:05:53;;;;;;;0.50;0.50;;;;;;;10.33;97.80;94570.44;29395;245;63004;-53
2024/04/01 01:06:26;;;;;;;0.50;0.50;;;;;;;10.32;97.82;94574.28;29395;529;63009;-53
2024/04/01 01:06:59;;;;;;;0.50;0.50;;;;;;;10.32;97.60;94574.28;29395;250;63010;-55
2024/04/01 01:07:32;;;;;;;0.50;0.50;;;;;;;10.35;97.68;94576.28;29395;318;63004;-53
2024/04/01 01:08:06;;;;;;;0.50;0.50;;;;;;;10.34;97.61;94566.56;29395;247;63005;-53
2024/04/01 01:08:37;;;;;;;0.50;0.50;;;;;;;10.32;97.59;94571.56;29395;298;63009;-53
2024/04/01 01:09:12;;;;;;;0.50;0.50;;;;;;;10.33;97.79;94570.44;29395;202;63005;-53
2024/04/01 01:09:44;;;;;;;0.50;0.50;;;;;;;10.32;97.83;94563.44;29395;240;63009;-53
2024/04/01 01:10:17;;;;;;;0.50;0.50;;;;;;;10.32;97.85;94560.72;29394;206;64009;-53
2024/04/01 01:10:49;;;;;;;0.50;0.50;;;;;;;10.33;97.73;94556.88;29395;254;63009;-53
2024/04/01 01:11:21;;;;;;;0.50;0.50;;;;;;;10.31;97.91;94551.00;29395;202;63005;-53
2024/04/01 01:11:52;;;;;;;0.50;0.50;;;;;;;10.29;98.61;94553.28;29395;239;63009;-54
2024/04/01 01:12:24;;;;;;;0.50;0.50;;;;;;;10.25;98.60;94539.62;29395;419;63009;-53
2024/04/01 01:12:55;;;;;;;0.50;0.50;;;;;;;10.21;98.97;94535.25;29395;247;63009;-53
2024/04/01 01:13:26;;;;;;;0.50;0.50;;;;;;;10.18;98.60;94523.16;29395;240;63004;-53
2024/04/01 01:13:58;;;;;;;0.50;0.50;;;;;;;10.18;98.68;94522.34;29394;219;64009;-54
2024/04/01 01:14:30;;;;;;;0.50;0.50;;;;;;;10.15;99.86;94514.91;29395;210;63004;-53
2024/04/01 01:15:01;;;;;;;0.50;0.50;;;;;;;10.12;100.00;94504.78;29395;208;63014;-54
2024/04/01 01:15:34;;;;;;;0.50;0.50;;;;;;;10.08;100.00;94505.47;29394;197;64009;-53
2024/04/01 01:16:06;;;;;;;0.50;0.50;;;;;;;10.09;100.00;94503.53;29394;270;64014;-54
2024/04/01 01:16:37;;;;;;;0.50;0.50;;;;;;;10.09;100.00;94501.62;29395;234;63005;-53
2024/04/01 01:17:08;;;;;;;0.50;0.50;;;;;;;10.08;100.00;94505.47;29395;454;63009;-54
2024/04/01 01:17:40;;;;;;;0.50;0.50;;;;;;;10.18;99.89;94503.38;29395;259;63005;-54
2024/04/01 01:18:12;;;;;;;0.50;0.50;;;;;;;10.21;99.59;94508.94;29395;268;63009;-54
2024/04/01 01:18:43;;;;;;;0.50;0.50;;;;;;;10.21;99.37;94508.16;29395;213;63005;-53
2024/04/01 01:19:16;;;;;;;0.50;0.50;;;;;;;10.18;98.96;94509.59;29395;200;63009;-53
2024/04/01 01:19:47;;;;;;;0.50;0.50;;;;;;;10.16;98.91;94511.88;29395;271;63004;-53
2024/04/01 01:20:20;;;;;;;0.50;0.50;;;;;;;10.17;99.17;94508.03;29395;230;63018;-55
2024/04/01 01:20:51;;;;;;;0.50;0.50;;;;;;;10.19;99.17;94510.38;29395;406;63004;-53
2024/04/01 01:21:23;;;;;;;0.50;0.50;;;;;;;10.21;99.15;94505.44;29394;286;64013;-53
2024/04/01 01:22:05;;;;;;;0.50;0.50;;;;;;;10.22;99.05;94499.66;29395;209;63004;-54
2024/04/01 01:22:36;;;;;;;0.50;0.50;;;;;;;10.23;98.99;94508.59;29395;348;63021;-54
2024/04/01 01:23:07;;;;;;;0.50;0.50;;;;;;;10.24;98.94;94502.03;29395;238;63005;-54
2024/04/01 01:23:39;;;;;;;0.50;0.50;;;;;;;10.29;98.80;94509.91;29395;471;63009;-55
2024/04/01 01:24:10;;;;;;;0.50;0.50;;;;;;;10.32;98.88;94510.00;29395;271;63016;-55
2024/04/01 01:24:42;;;;;;;1.25;1.15;;;;;;;10.34;98.29;94507.72;29395;223;63009;-54
2024/04/01 01:25:13;;;;;;;0.50;0.50;;;;;;;10.34;98.46;94512.38;29395;229;63005;-55
2024/04/01 01:25:44;;;;;;;0.50;0.50;;;;;;;10.37;98.58;94511.69;29395;261;63009;-53
2024/04/01 01:26:22;;;;;;;0.50;0.50;;;;;;;10.32;98.39;94518.13;29395;299;63005;-53
2024/04/01 01:26:55;;;;;;;0.50;0.50;;;;;;;10.26;98.69;94519.53;29394;214;64009;-53
2024/04/01 01:27:27;;;;;;;0.40;0.40;;;;;;;10.22;99.35;94515.16;29395;197;63004;-53
2024/04/01 01:27:58;;;;;;;0.50;0.50;;;;;;;10.18;98.90;94516.94;29395;445;63009;-54
2024/04/01 01:28:33;;;;;;;0.50;0.50;;;;;;;10.14;100.00;94513.34;29395;398;63004;-53
2024/04/01 01:29:05;;;;;;;0.50;0.50;;;;;;;10.11;99.48;94508.63;29395;203;63009;-54
2024/04/01 01:29:36;;;;;;;0.50;0.50;;;;;;;10.08;99.23;94505.47;29395;197;63011;-54
2024/04/01 01:30:15;;;;;;;0.50;0.50;;;;;;;10.06;100.00;94507.72;29395;267;63008;-53
2024/04/01 01:30:47;;;;;;;0.50;0.50;;;;;;;10.03;100.00;94508.47;29395;234;63005;-53
2024/04/01 01:31:20;;;;;;;0.47;0.47;;;;;;;10.01;100.00;94508.00;29395;210;63009;-53
2024/04/01 01:31:52;;;;;;;0.50;0.50;;;;;;;9.99;100.00;94510.28;29395;199;63005;-54
2024/04/01 01:32:24;;;;;;;0.50;0.50;;;;;;;9.97;100.00;94509.84;29394;205;64033;-53
2024/04/01 01:32:55;;;;;;;0.50;0.50;;;;;;;9.97;100.00;94514.47;29395;240;63005;-53
2024/04/01 01:33:30;;;;;;;0.50;0.50;;;;;;;9.94;100.00;94510.53;29395;325;63009;-53
2024/04/01 01:34:01;;;;;;;0.50;0.50;;;;;;;9.92;100.00;94512.78;29395;467;63005;-53
2024/04/01 01:34:33;;;;;;;0.50;0.50;;;;;;;9.90;100.00;94503.44;29395;197;63009;-53
2024/04/01 01:35:04;;;;;;;0.50;0.50;;;;;;;9.90;100.00;94506.16;29395;247;63004;-53
2024/04/01 01:35:41;;;;;;;0.50;0.50;;;;;;;9.91;100.00;94511.22;29395;244;63009;-53
2024/04/01 01:36:12;;;;;;;0.50;0.50;;;;;;;9.95;100.00;94511.31;29395;246;63004;-56
2024/04/01 01:36:44;;;;;;;0.50;0.50;;;;;;;10.00;100.00;94508.34;29395;278;63009;-53
2024/04/01 01:37:15;;;;;;;0.50;0.50;;;;;;;10.02;100.00;94512.31;29395;232;63004;-53
2024/04/01 01:37:52;;;;;;;0.50;0.50;;;;;;;10.01;100.00;94510.72;29394;196;64013;-53
2024/04/01 01:38:23;;;;;;;0.50;0.50;;;;;;;10.00;100.00;94519.97;29395;205;63005;-53
2024/04/01 01:38:54;;;;;;;0.50;0.50;;;;;;;10.00;100.00;94522.69;29395;236;63020;-53
2024/04/01 01:39:26;;;;;;;0.50;0.50;;;;;;;9.99;100.00;94521.13;29395;267;63005;-53
2024/04/01 01:39:57;;;;;;;0.50;0.50;;;;;;;9.98;100.00;94516.84;29395;241;63009;-53
2024/04/01 01:40:29;;;;;;;0.50;0.50;;;;;;;9.96;100.00;94519.09;29395;285;63011;-53
2024/04/01 01:41:00;;;;;;;0.50;0.50;;;;;;;9.95;100.00;94522.16;29395;231;63009;-54
2024/04/01 01:41:31;;;;;;;0.50;0.50;;;;;;;9.94;100.00;94521.37;29395;230;63004;-53
2024/04/01 01:42:04;;;;;;;0.50;0.50;;;;;;;9.94;100.00;94518.66;29395;264;63004;-53
2024/04/01 01:42:36;;;;;;;0.50;0.50;;;;;;;9.94;100.00;94515.94;29395;212;63007;-54
2024/04/01 01:43:07;;;;;;;0.50;0.50;;;;;;;9.96;100.00;94510.97;29394;248;64013;-54
2024/04/01 01:43:39;;;;;;;0.50;0.50;;;;;;;10.00;100.00;94509.16;29395;235;63007;-53
2024/04/01 01:44:11;;;;;;;0.50;0.50;;;;;;;10.02;100.00;94496.03;29395;215;63010;-53
2024/04/01 01:44:42;;;;;;;0.50;0.50;;;;;;;10.02;100.00;94506.88;29395;238;63000;-54
2024/04/01 01:45:13;;;;;;;0.50;0.50;;;;;;;10.02;100.00;94506.88;29395;220;63008;-53
2024/04/01 01:45:44;;;;;;;0.50;0.50;;;;;;;10.01;100.00;94515.34;29395;308;63005;-53
2024/04/01 01:46:16;;;;;;;0.50;0.50;;;;;;;10.00;100.00;94514.56;29395;211;63009;-53
2024/04/01 01:46:47;;;;;;;0.45;0.45;;;;;;;10.00;100.00;94519.97;29395;320;63005;-53
2024/04/01 01:47:18;;;;;;;0.50;0.50;;;;;;;9.98;100.00;94516.84;29395;254;63009;-53
2024/04/01 01:47:49;;;;;;;0.50;0.50;;;;;;;9.98;100.00;94524.16;29395;248;63005;-53
2024/04/01 01:48:23;;;;;;;0.40;0.40;;;;;;;9.96;100.00;94526.44;29394;249;64013;-53
2024/04/01 01:48:54;;;;;;;0.50;0.50;;;;;;;9.94;100.00;94526.78;29395;267;63005;-53
2024/04/01 01:49:26;;;;;;;0.50;0.50;;;;;;;9.93;100.00;94519.78;29395;245;63009;-53
2024/04/01 01:49:57;;;;;;;0.50;0.50;;;;;;;9.90;100.00;94525.88;29395;377;63004;-53
2024/04/01 01:50:29;;;;;;;0.50;0.50;;;;;;;9.90;100.00;94525.09;29395;199;63009;-53
2024/04/01 01:51:00;;;;;;;0.50;0.50;;;;;;;9.87;100.00;94523.88;29395;235;63004;-53
2024/04/01 01:51:32;;;;;;;0.50;0.50;;;;;;;9.87;100.00;94520.37;29394;245;64013;-53
2024/04/01 01:52:04;;;;;;;0.50;0.50;;;;;;;9.86;100.00;94524.22;29395;226;63004;-53
2024/04/01 01:52:36;;;;;;;0.50;0.50;;;;;;;9.84;100.00;94521.84;29395;198;63009;-53
2024/04/01 01:53:09;;;;;;;0.50;0.50;;;;;;;9.81;100.00;94513.63;29395;262;63005;-53
2024/04/01 01:53:40;;;;;;;0.50;0.50;;;;;;;9.82;100.00;94509.78;29395;463;63009;-54
2024/04/01 01:54:11;;;;;;;0.50;0.50;;;;;;;9.83;100.00;94506.72;29394;335;64009;-54
2024/04/01 01:54:42;;;;;;;0.50;0.50;;;;;;;9.85;100.00;94495.56;29395;237;63009;-53
2024/04/01 01:55:13;;;;;;;0.50;0.50;;;;;;;9.86;100.00;94497.13;29395;330;63005;-53
2024/04/01 01:55:45;;;;;;;0.50;0.50;;;;;;;9.85;100.00;94490.94;29395;199;63009;-53
2024/04/01 01:56:18;;;;;;;0.50;0.50;;;;;;;9.84;100.00;94488.56;29394;206;64009;-53
2024/04/01 01:56:50;;;;;;;0.50;0.50;;;;;;;9.81;100.00;94479.22;29395;323;63009;-53
2024/04/01 01:57:21;;;;;;;0.50;0.50;;;;;;;9.80;100.00;94488.47;29395;229;63004;-53
2024/04/01 01:57:53;;;;;;;0.50;0.50;;;;;;;9.78;100.00;94493.44;29395;203;63009;-53
2024/04/01 01:58:24;;;;;;;0.50;0.50;;;;;;;9.76;100.00;94487.56;29395;209;63004;-53
2024/04/01 01:58:55;;;;;;;0.50;0.50;;;;;;;9.74;100.00;94484.44;29395;247;63009;-53
2024/04/01 01:59:26;;;;;;;0.50;0.50;;;;;;;9.74;100.00;94484.44;29395;222;63004;-53
2024/04/01 01:59:58;;;;;;;0.50;0.50;;;;;;;9.72;100.00;94476.66;29395;207;63008;-54
2024/04/01 02:00:29;;;;;;;0.50;0.50;;;;;;;9.71;100.00;94479.69;29394;504;64009;-53
2024/04/01 02:01:00;;;;;;;0.50;0.50;;;;;;;9.71;100.00;94482.41;29395;205;63009;-53
2024/04/01 02:01:33;;;;;;;0.47;0.47;;;;;;;9.70;100.00;94478.16;29395;221;63005;-53
2024/04/01 02:02:04;;;;;;;0.50;0.50;;;;;;;9.68;100.00;94477.72;29395;254;63009;-53
2024/04/01 02:02:35;;;;;;;0.50;0.50;;;;;;;9.69;100.00;94482.78;29395;230;63009;-53
2024/04/01 02:03:06;;;;;;;0.50;0.50;;;;;;;9.70;100.00;94491.69;29395;243;63009;-53
2024/04/01 02:03:38;;;;;;;0.50;0.50;;;;;;;9.69;100.00;94487.41;29395;240;63005;-53
2024/04/01 02:04:09;;;;;;;0.50;0.50;;;;;;;9.70;100.00;94494.41;29395;202;63009;-53
2024/04/01 02:04:42;;;;;;;0.50;0.50;;;;;;;9.68;100.00;94499.38;29394;237;64004;-53
2024/04/01 02:05:13;;;;;;;0.50;0.50;;;;;;;9.66;100.00;94494.28;29395;196;63009;-53
2024/04/01 02:05:44;;;;;;;0.50;0.50;;;;;;;9.67;100.00;94501.28;29395;475;63004;-53
2024/04/01 02:06:15;;;;;;;0.50;0.50;;;;;;;9.66;100.00;94498.94;29395;488;63009;-53
2024/04/01 02:06:47;;;;;;;0.50;0.50;;;;;;;9.66;100.00;94498.94;29395;343;63004;-53
2024/04/01 02:07:18;;;;;;;0.43;0.43;;;;;;;9.65;100.00;94503.56;29395;276;63008;-54
2024/04/01 02:07:49;;;;;;;0.50;0.50;;;;;;;9.66;100.00;94507.03;29395;337;63005;-53
2024/04/01 02:08:21;;;;;;;0.50;0.50;;;;;;;9.63;100.00;94511.22;29395;219;63009;-53
2024/04/01 02:08:52;;;;;;;0.50;0.50;;;;;;;9.63;100.00;94505.03;29394;359;64009;-53
2024/04/01 02:09:23;;;;;;;0.50;0.50;;;;;;;9.63;100.00;94513.94;29395;240;63009;-53
2024/04/01 02:09:54;;;;;;;0.50;0.50;;;;;;;9.62;100.00;94514.28;29395;202;63005;-53
2024/04/01 02:10:26;;;;;;;0.50;0.50;;;;;;;9.60;100.00;94519.25;29395;359;63019;-53
2024/04/01 02:10:57;;;;;;;0.50;0.50;;;;;;;9.59;100.00;94514.97;29395;357;63005;-71
2024/04/01 02:11:28;;;;;;;0.50;0.50;;;;;;;9.58;100.00;94513.37;29395;470;63009;-53
2024/04/01 02:12:01;;;;;;;0.50;0.50;;;;;;;9.58;100.00;94513.37;29395;200;63004;-54
2024/04/01 02:12:32;;;;;;;0.50;0.50;;;;;;;9.58;100.00;94518.81;29395;229;63009;-54
2024/04/01 02:13:05;;;;;;;0.50;0.50;;;;;;;9.58;100.00;94525.00;29394;202;64009;-54
2024/04/01 02:13:36;;;;;;;0.50;0.50;;;;;;;9.57;100.00;94515.31;29395;245;63024;-53
2024/04/01 02:14:08;;;;;;;0.50;0.50;;;;;;;9.58;100.00;94516.09;29395;208;63004;-53
2024/04/01 02:14:41;;;;;;;0.40;0.40;;;;;;;9.59;100.00;94514.97;29395;436;63008;-55
2024/04/01 02:15:14;;;;;;;0.50;0.50;;;;;;;9.57;100.00;94503.69;29395;243;63005;-53
2024/04/01 02:15:45;;;;;;;0.50;0.50;;;;;;;9.58;100.00;94506.06;29395;261;63005;-54
2024/04/01 02:16:17;;;;;;;0.50;0.50;;;;;;;9.57;100.00;94495.56;29395;330;63005;-53
2024/04/01 02:16:51;;;;;;;0.50;0.50;;;;;;;9.56;100.00;94483.16;29395;199;63017;-53
2024/04/01 02:17:22;;;;;;;0.50;0.50;;;;;;;9.55;100.00;94478.88;29395;536;63005;-55
2024/04/01 02:17:54;;;;;;;0.50;0.50;;;;;;;9.52;100.00;94476.84;29394;239;64013;-52
2024/04/01 02:18:25;;;;;;;0.50;0.50;;;;;;;9.50;100.00;94473.72;29395;306;63005;-53
2024/04/01 02:18:57;;;;;;;0.50;0.50;;;;;;;9.49;100.00;94470.22;29395;244;63009;-53
2024/04/01 02:19:28;;;;;;;0.50;0.50;;;;;;;9.48;100.00;94457.03;29395;257;63004;-53
2024/04/01 02:20:11;;;;;;;0.50;0.50;;;;;;;9.47;100.00;94458.16;29395;278;63009;-53
2024/04/01 02:20:43;;;;;;;0.50;0.50;;;;;;;9.46;100.00;94445.75;29395;196;63004;-54
2024/04/01 02:21:18;;;;;;;0.50;0.50;;;;;;;9.45;100.00;94438.75;29395;252;63009;-53
2024/04/01 02:21:50;;;;;;;0.50;0.50;;;;;;;9.41;100.00;94439.44;29395;202;63004;-53
2024/04/01 02:22:22;;;;;;;0.50;0.50;;;;;;;9.39;100.00;94433.59;29395;204;63008;-53
2024/04/01 02:22:53;;;;;;;0.50;0.50;;;;;;;9.41;100.00;94449.47;29394;255;64009;-53
2024/04/01 02:23:34;;;;;;;0.50;0.50;;;;;;;9.41;100.00;94447.56;29394;236;64014;-53
2024/04/01 02:24:07;;;;;;;0.50;0.50;;;;;;;9.41;100.00;94444.84;29417;238;63011;-53
2024/04/01 02:24:41;;;;;;;0.50;0.50;;;;;;;9.40;100.00;94432.47;29395;216;63009;-54
2024/04/01 02:25:17;;;;;;;0.50;0.50;;;;;;;9.38;100.00;94440.12;29395;244;63005;-54
2024/04/01 02:25:48;;;;;;;0.50;0.50;;;;;;;9.38;100.00;94428.53;29395;266;63009;-53
2024/04/01 02:26:19;;;;;;;0.50;0.50;;;;;;;9.35;100.00;94424.63;29395;202;63005;-53
2024/04/01 02:26:54;;;;;;;0.50;0.50;;;;;;;9.36;100.00;94419.97;29395;251;63009;-54
2024/04/01 02:27:25;;;;;;;0.50;0.50;;;;;;;9.34;100.00;94417.62;29395;270;63007;-54
2024/04/01 02:27:56;;;;;;;0.50;0.50;;;;;;;9.35;100.00;94419.19;29394;230;64013;-53
2024/04/01 02:28:29;;;;;;;0.50;0.50;;;;;;;9.37;100.00;94421.53;29394;253;64009;-53
2024/04/01 02:29:03;;;;;;;0.50;0.50;;;;;;;9.36;100.00;94417.25;29395;336;63009;-53
2024/04/01 02:29:35;;;;;;;0.50;0.50;;;;;;;9.35;100.00;94415.72;29395;214;63004;-54
2024/04/01 02:30:07;;;;;;;0.50;0.50;;;;;;;9.34;100.00;94423.03;29394;202;64013;-54
2024/04/01 02:30:38;;;;;;;0.50;0.50;;;;;;;9.34;100.00;94417.62;29395;224;63005;-53
2024/04/01 02:31:09;;;;;;;0.50;0.50;;;;;;;9.33;100.00;94420.69;29395;199;63009;-54
2024/04/01 02:31:41;;;;;;;0.50;0.50;;;;;;;9.32;100.00;94417.19;29395;397;63005;-53
2024/04/01 02:32:12;;;;;;;0.50;0.50;;;;;;;9.31;100.00;94418.31;29395;259;63009;-53
2024/04/01 02:32:44;;;;;;;0.50;0.50;;;;;;;9.31;100.00;94412.09;29394;210;64005;-54